Time;durP1;ratioP1;P1;durP2;ratioP2;P2;SDS_P1;SDS_P2;PMS_P1;PMS_P2;Temp;Humidity;BMP_temperature;BMP_pressure;BME280_temperature;BME280_humidity;BME280_pressure;Samples;Min_cycle;Max_cycle;Signal;HPM_P1;HPM_P2
2022/02/27 00:00:57;;;;;;;16.37;10.27;;;2.10;99.90;;;2.49;100.00;-19811.63;5093995;28;20259;-61
2022/02/27 00:03:25;;;;;;;16.00;9.53;;;2.00;99.90;;;2.66;100.00;-19817.25;5093795;28;20909;-62
2022/02/27 00:05:55;;;;;;;14.17;9.47;;;2.00;99.90;;;2.89;100.00;-19825.31;5093674;28;20255;-62
2022/02/27 00:08:23;;;;;;;21.10;9.53;;;2.10;99.90;;;2.61;100.00;-19815.72;5093884;28;20283;-61
2022/02/27 00:10:51;;;;;;;15.77;9.10;;;2.10;99.90;;;2.78;100.00;-19821.38;5094088;28;20283;-60
2022/02/27 00:13:19;;;;;;;14.63;9.23;;;2.10;99.90;;;3.07;100.00;-19831.28;5093590;28;20318;-59
2022/02/27 00:15:47;;;;;;;12.73;8.50;;;2.20;99.90;;;2.84;100.00;-19823.59;5093564;28;20235;-61
2022/02/27 00:18:15;;;;;;;12.43;8.90;;;2.20;99.90;;;2.62;100.00;-19815.91;5093616;28;20248;-62
2022/02/27 00:20:44;;;;;;;16.03;8.73;;;2.10;99.90;;;2.46;100.00;-19810.78;5093261;28;20234;-63
2022/02/27 00:23:15;;;;;;;13.83;9.07;;;2.00;99.90;;;2.63;100.00;-19816.25;5093586;28;20279;-59
2022/02/27 00:25:43;;;;;;;13.10;8.60;;;2.00;99.90;;;2.78;100.00;-19821.38;5093903;28;20188;-60
2022/02/27 00:28:11;;;;;;;16.90;10.00;;;2.10;99.90;;;2.79;100.00;-19821.72;5093244;28;20311;-58
2022/02/27 00:30:39;;;;;;;12.83;8.60;;;2.10;99.90;;;2.76;100.00;-19820.84;5093343;28;20727;-62
2022/02/27 00:33:07;;;;;;;14.10;9.53;;;2.10;99.90;;;2.84;100.00;-19823.41;5093121;28;20228;-61
2022/02/27 00:35:35;;;;;;;14.43;9.80;;;2.10;99.90;;;2.83;100.00;-19823.25;5093185;28;20226;-61
2022/02/27 00:38:03;;;;;;;15.37;9.50;;;2.20;99.90;;;2.79;100.00;-19821.72;5093496;28;20222;-61
2022/02/27 00:40:33;;;;;;;14.57;9.47;;;2.20;99.90;;;2.79;100.00;-19821.88;5093164;28;20723;-61
2022/02/27 00:43:01;;;;;;;14.50;9.73;;;2.10;99.90;;;2.80;100.00;-19822.22;5093052;28;20231;-62
2022/02/27 00:45:29;;;;;;;12.87;9.30;;;2.10;99.90;;;3.05;100.00;-19830.59;5093020;28;20852;-61
2022/02/27 00:47:57;;;;;;;17.00;9.87;;;2.20;99.90;;;3.16;100.00;-19834.53;5092652;28;20226;-61
2022/02/27 00:50:25;;;;;;;15.07;9.20;;;2.30;99.90;;;2.98;100.00;-19828.38;5092853;28;20238;-62
2022/02/27 00:52:53;;;;;;;15.47;9.17;;;2.30;99.90;;;2.83;100.00;-19823.06;5093322;28;20240;-60
2022/02/27 00:55:24;;;;;;;14.53;9.80;;;2.20;99.90;;;2.95;100.00;-19827.34;5092993;28;20222;-62
2022/02/27 00:57:54;;;;;;;13.40;9.57;;;2.30;99.90;;;2.77;100.00;-19821.03;5092536;28;20238;-60
2022/02/27 01:00:21;;;;;;;17.40;9.77;;;2.20;99.90;;;2.78;100.00;-19821.53;5092899;28;20226;-60
2022/02/27 01:02:49;;;;;;;19.53;10.17;;;2.20;99.90;;;3.11;100.00;-19832.66;5092376;28;20228;-60
2022/02/27 01:05:18;;;;;;;15.47;9.83;;;2.20;99.90;;;3.20;100.00;-19835.72;5092315;28;20890;-60
2022/02/27 01:07:46;;;;;;;12.30;9.00;;;2.30;99.90;;;3.16;100.00;-19834.34;5092770;28;20709;-60
2022/02/27 01:10:14;;;;;;;18.93;9.33;;;2.30;99.90;;;3.17;100.00;-19834.69;5092179;28;20219;-60
2022/02/27 01:12:42;;;;;;;13.83;9.43;;;2.40;99.90;;;3.32;100.00;-19839.81;5091975;28;20781;-62
2022/02/27 01:15:12;;;;;;;15.83;9.47;;;2.50;99.90;;;3.19;100.00;-19835.38;5092391;28;20230;-60
2022/02/27 01:17:40;;;;;;;14.83;9.53;;;2.50;99.90;;;3.11;100.00;-19832.81;5092461;28;20226;-60
2022/02/27 01:20:10;;;;;;;15.27;10.27;;;2.40;99.90;;;2.96;100.00;-19827.53;5092644;28;20223;-62
2022/02/27 01:22:38;;;;;;;14.40;10.00;;;2.30;99.90;;;2.97;100.00;-19827.88;5092616;28;20252;-62
2022/02/27 01:25:10;;;;;;;14.93;10.27;;;2.30;99.90;;;2.89;100.00;-19825.31;5092451;28;20229;-61
2022/02/27 01:27:38;;;;;;;15.37;10.33;;;2.20;99.90;;;2.88;100.00;-19824.97;5091933;28;20227;-60
2022/02/27 01:30:09;;;;;;;12.90;9.83;;;2.10;99.90;;;2.65;100.00;-19817.09;5092265;28;20326;-61
2022/02/27 01:32:38;;;;;;;16.80;10.50;;;2.10;99.90;;;2.63;100.00;-19816.25;5092421;28;20302;-61
2022/02/27 01:35:08;;;;;;;18.10;10.43;;;1.90;99.90;;;2.69;100.00;-19818.28;5092485;28;20227;-60
2022/02/27 01:37:37;;;;;;;18.07;11.23;;;2.00;99.90;;;2.56;100.00;-19814.00;5092673;28;20269;-60
2022/02/27 01:40:08;;;;;;;17.07;11.23;;;1.90;99.90;;;2.57;100.00;-19814.19;5092082;28;20758;-60
2022/02/27 01:42:38;;;;;;;17.77;11.43;;;1.90;99.90;;;2.59;100.00;-19814.88;5092004;28;20299;-61
2022/02/27 01:45:07;;;;;;;16.17;12.20;;;1.90;99.90;;;2.56;100.00;-19813.84;5092290;28;20606;-60
2022/02/27 01:47:36;;;;;;;15.07;12.07;;;1.80;99.90;;;2.34;100.00;-19806.66;5091734;28;20610;-62
2022/02/27 01:50:08;;;;;;;18.70;12.20;;;1.70;99.90;;;2.32;100.00;-19805.97;5092279;28;20222;-61
2022/02/27 01:52:36;;;;;;;16.40;11.13;;;1.70;99.90;;;2.27;100.00;-19804.09;5092120;28;20651;-61
2022/02/27 01:55:06;;;;;;;14.13;11.00;;;1.70;99.90;;;2.35;100.00;-19807.00;5092040;28;20244;-61
2022/02/27 01:57:40;;;;;;;15.80;11.13;;;1.70;99.90;;;2.41;100.00;-19808.88;5091768;28;20224;-60
2022/02/27 02:00:12;;;;;;;19.30;12.20;;;1.70;99.90;;;2.20;100.00;-19801.88;5091000;28;20691;-60
2022/02/27 02:02:44;;;;;;;20.17;12.03;;;1.60;99.90;;;2.34;100.00;-19806.66;5091548;28;20697;-60
2022/02/27 02:05:15;;;;;;;20.93;11.77;;;1.60;99.90;;;2.30;100.00;-19805.28;5091609;28;20204;-60
2022/02/27 02:07:45;;;;;;;16.03;11.40;;;1.60;99.90;;;2.23;100.00;-19802.91;5092067;28;20563;-60
2022/02/27 02:10:13;;;;;;;15.60;10.93;;;1.60;99.90;;;2.13;100.00;-19799.47;5091805;28;20228;-61
2022/02/27 02:12:41;;;;;;;20.77;12.57;;;1.50;99.90;;;2.16;100.00;-19800.50;5091537;28;20241;-61
2022/02/27 02:15:11;;;;;;;16.37;12.07;;;1.50;99.90;;;2.46;100.00;-19810.59;5091574;28;20687;-60
2022/02/27 02:17:39;;;;;;;20.03;11.03;;;1.60;99.90;;;2.09;100.00;-19798.13;5091661;28;20216;-60
2022/02/27 02:20:10;;;;;;;16.93;11.53;;;1.60;99.90;;;1.93;100.00;-19792.47;5091969;28;20226;-61
2022/02/27 02:22:38;;;;;;;17.37;12.17;;;1.40;99.90;;;1.93;100.00;-19792.47;5091709;28;20204;-60
2022/02/27 02:25:08;;;;;;;21.57;12.07;;;1.40;99.90;;;1.94;100.00;-19792.81;5091740;28;20638;-60
2022/02/27 02:27:36;;;;;;;17.40;12.47;;;1.30;99.90;;;2.02;100.00;-19795.56;5091080;28;20329;-59
2022/02/27 02:30:09;;;;;;;18.50;12.17;;;1.30;99.90;;;2.10;100.00;-19798.47;5091613;28;20312;-60
2022/02/27 02:32:51;;;;;;;17.63;10.93;;;1.30;99.90;;;1.91;100.00;-19791.78;5091669;28;20219;-59
2022/02/27 02:35:22;;;;;;;17.73;11.97;;;1.30;99.90;;;1.87;100.00;-19790.59;5090730;28;20239;-60
2022/02/27 02:37:51;;;;;;;19.50;12.10;;;1.20;99.90;;;1.93;100.00;-19792.47;5091162;28;20315;-60
2022/02/27 02:40:19;;;;;;;19.10;12.47;;;1.30;99.90;;;1.84;100.00;-19789.56;5090870;28;20228;-60
2022/02/27 02:42:47;;;;;;;19.00;12.43;;;1.30;99.90;;;1.73;100.00;-19785.81;5090736;28;20295;-60
2022/02/27 02:45:15;;;;;;;20.27;12.23;;;1.20;99.90;;;1.79;100.00;-19787.88;5090762;28;20227;-61
2022/02/27 02:47:46;;;;;;;18.53;12.50;;;1.20;99.90;;;1.87;100.00;-19790.59;5090551;28;20227;-60
2022/02/27 02:50:16;;;;;;;22.50;12.67;;;1.20;99.90;;;1.87;100.00;-19790.44;5090177;28;20210;-61
2022/02/27 02:52:46;;;;;;;16.70;12.70;;;1.20;99.90;;;1.88;100.00;-19790.94;5090928;28;20197;-60
2022/02/27 02:55:18;;;;;;;20.33;12.70;;;1.20;99.90;;;1.83;100.00;-19789.06;5090705;28;20250;-61
2022/02/27 02:57:46;;;;;;;20.23;12.53;;;1.20;99.90;;;1.85;100.00;-19789.75;5090572;28;20223;-62
2022/02/27 03:00:15;;;;;;;16.63;12.53;;;1.20;99.90;;;1.92;100.00;-19792.31;5090112;28;20251;-61
2022/02/27 03:02:44;;;;;;;21.63;13.40;;;1.20;99.90;;;1.96;100.00;-19793.50;5090561;28;20351;-61
2022/02/27 03:05:12;;;;;;;15.77;13.03;;;1.20;99.90;;;2.06;100.00;-19796.91;5090168;28;20577;-60
2022/02/27 03:07:41;;;;;;;17.70;12.87;;;1.20;99.90;;;2.06;100.00;-19797.09;5091139;28;20196;-60
2022/02/27 03:10:11;;;;;;;17.53;12.20;;;1.20;99.90;;;1.85;100.00;-19789.75;5091010;28;20642;-60
2022/02/27 03:12:40;;;;;;;18.70;12.73;;;1.20;99.90;;;1.76;100.00;-19786.84;5093949;28;20745;-60
2022/02/27 03:15:09;;;;;;;16.67;12.47;;;1.10;99.90;;;1.68;100.00;-19784.09;5093928;28;20590;-61
2022/02/27 03:17:37;;;;;;;16.77;12.57;;;1.10;99.90;;;1.69;100.00;-19784.28;5094173;28;20232;-61
2022/02/27 03:20:08;;;;;;;18.03;12.90;;;1.00;99.90;;;1.66;100.00;-19783.41;5094017;28;20223;-60
2022/02/27 03:22:36;;;;;;;21.77;12.40;;;1.00;99.90;;;1.75;100.00;-19786.31;5094110;28;20329;-60
2022/02/27 03:25:05;;;;;;;20.30;12.87;;;1.00;99.90;;;1.71;100.00;-19784.97;5093681;28;20311;-61
2022/02/27 03:27:34;;;;;;;16.80;12.87;;;1.00;99.90;;;1.66;100.00;-19783.41;5093467;28;20228;-60
2022/02/27 03:30:02;;;;;;;16.57;12.20;;;1.00;99.90;;;1.52;100.00;-19778.63;5093677;28;20603;-60
2022/02/27 03:32:30;;;;;;;19.17;13.20;;;1.00;99.90;;;1.53;100.00;-19778.97;5094018;28;20227;-61
2022/02/27 03:34:58;;;;;;;17.20;12.40;;;0.90;99.90;;;1.52;100.00;-19778.63;5093467;28;20283;-60
2022/02/27 03:37:26;;;;;;;18.83;13.33;;;0.90;99.90;;;1.68;100.00;-19783.94;5093524;28;20247;-61
2022/02/27 03:39:54;;;;;;;17.13;12.43;;;0.90;99.90;;;1.55;100.00;-19779.66;5093411;28;20228;-61
2022/02/27 03:42:22;;;;;;;17.70;12.23;;;0.90;99.90;;;1.57;100.00;-19780.34;5093580;28;20314;-61
2022/02/27 03:44:51;;;;;;;18.27;13.10;;;0.90;99.90;;;1.41;100.00;-19774.69;5093580;28;20219;-60
2022/02/27 03:47:19;;;;;;;16.10;11.40;;;0.90;99.90;;;1.36;100.00;-19773.16;5093427;28;20291;-60
2022/02/27 03:49:47;;;;;;;19.73;12.73;;;0.80;99.90;;;1.55;100.00;-19779.66;5093331;28;20564;-61
2022/02/27 03:52:17;;;;;;;19.07;12.87;;;0.80;99.90;;;1.50;100.00;-19777.94;5093056;28;20227;-60
2022/02/27 03:54:45;;;;;;;18.30;12.40;;;0.80;99.90;;;1.41;100.00;-19774.88;5092172;28;20791;-60
2022/02/27 03:57:13;;;;;;;19.33;12.67;;;0.80;99.90;;;1.36;100.00;-19773.16;5092703;28;20252;-60
2022/02/27 03:59:41;;;;;;;19.60;13.60;;;0.80;99.90;;;1.27;100.00;-19770.25;5092723;28;20309;-60
2022/02/27 04:02:11;;;;;;;17.73;13.60;;;0.70;99.90;;;1.27;100.00;-19770.06;5093276;28;20227;-61
2022/02/27 04:04:39;;;;;;;20.03;12.80;;;0.70;99.90;;;1.27;100.00;-19770.06;5092956;28;20667;-60
2022/02/27 04:07:07;;;;;;;18.27;13.20;;;0.70;99.90;;;1.27;100.00;-19770.06;5092736;28;20703;-60
2022/02/27 04:09:35;;;;;;;19.00;13.73;;;0.70;99.90;;;1.30;100.00;-19771.09;5093007;28;20722;-60
2022/02/27 04:12:04;;;;;;;19.20;13.97;;;0.70;99.90;;;1.13;100.00;-19765.47;5092968;28;20224;-60
2022/02/27 04:14:32;;;;;;;21.50;13.30;;;0.60;99.90;;;1.20;100.00;-19767.69;5092663;28;20595;-60
2022/02/27 04:17:00;;;;;;;20.07;13.70;;;0.60;99.90;;;1.20;100.00;-19767.84;5093512;28;20301;-60
2022/02/27 04:19:29;;;;;;;18.73;12.50;;;0.70;99.90;;;1.56;100.00;-19779.81;5092219;28;20598;-60
2022/02/27 04:21:57;;;;;;;20.87;13.53;;;0.70;99.90;;;1.52;100.00;-19778.47;5091840;28;20234;-60
2022/02/27 04:24:25;;;;;;;17.63;12.93;;;0.80;99.90;;;1.51;100.00;-19778.28;5092599;28;20250;-60
2022/02/27 04:26:53;;;;;;;18.90;12.70;;;0.80;99.90;;;1.52;100.00;-19778.63;5092280;28;20302;-59
2022/02/27 04:29:21;;;;;;;17.60;12.33;;;0.90;99.90;;;1.63;100.00;-19782.38;5089857;28;20309;-60
2022/02/27 04:31:49;;;;;;;18.90;12.57;;;0.90;99.90;;;1.61;100.00;-19781.53;5093210;28;20287;-60
2022/02/27 04:34:17;;;;;;;18.17;12.80;;;0.90;99.90;;;1.47;100.00;-19776.91;5092254;28;20234;-60
2022/02/27 04:36:47;;;;;;;22.10;13.80;;;0.90;99.90;;;1.56;100.00;-19780.00;5092919;28;20224;-60
2022/02/27 04:39:15;;;;;;;18.87;12.70;;;0.80;99.90;;;1.40;100.00;-19774.53;5093308;28;20311;-60
2022/02/27 04:41:43;;;;;;;20.80;13.77;;;0.80;99.90;;;1.46;100.00;-19776.41;5093067;28;20225;-61
2022/02/27 04:44:10;;;;;;;14.83;11.73;;;0.80;99.90;;;1.35;100.00;-19772.81;5093068;28;20227;-59
2022/02/27 04:46:39;;;;;;;15.67;11.87;;;0.70;99.90;;;1.41;100.00;-19774.88;5093510;28;20196;-60
2022/02/27 04:49:06;;;;;;;18.67;12.77;;;0.70;99.90;;;1.41;100.00;-19774.69;5092925;28;20580;-61
2022/02/27 04:51:34;;;;;;;19.53;12.67;;;0.70;99.90;;;1.34;100.00;-19772.31;5092987;28;20224;-61
2022/02/27 04:54:09;;;;;;;19.77;13.37;;;0.70;99.90;;;1.32;100.00;-19771.78;5072953;28;20235;-59
2022/02/27 04:56:37;;;;;;;19.57;13.10;;;0.70;99.90;;;1.19;100.00;-19767.50;5072716;28;20224;-60
2022/02/27 04:59:05;;;;;;;21.57;13.80;;;0.60;99.90;;;1.24;100.00;-19769.06;5084126;28;20277;-59
2022/02/27 05:01:36;;;;;;;20.97;13.53;;;0.60;99.90;;;1.20;100.00;-19767.69;5093082;28;20216;-60
2022/02/27 05:04:05;;;;;;;18.07;13.60;;;0.60;99.90;;;1.10;100.00;-19764.25;5092022;28;20232;-61
2022/02/27 05:06:33;;;;;;;19.77;12.97;;;0.50;99.90;;;1.18;100.00;-19767.16;5092506;28;20319;-61
2022/02/27 05:09:02;;;;;;;22.37;13.87;;;0.50;99.90;;;1.17;100.00;-19766.66;5092774;28;20234;-61
2022/02/27 05:11:31;;;;;;;18.77;13.13;;;0.50;99.90;;;1.17;100.00;-19766.66;5092740;28;20250;-61
2022/02/27 05:13:59;;;;;;;21.13;13.77;;;0.50;99.90;;;1.10;100.00;-19764.44;5093033;28;20235;-60
2022/02/27 05:16:28;;;;;;;22.37;13.90;;;0.50;99.90;;;1.08;100.00;-19763.59;5092324;28;20311;-60
2022/02/27 05:18:56;;;;;;;19.90;13.60;;;0.50;99.90;;;1.06;100.00;-19763.06;5092393;28;20231;-60
2022/02/27 05:21:24;;;;;;;20.90;14.20;;;0.40;99.90;;;1.00;100.00;-19761.03;5092392;28;20227;-60
2022/02/27 05:23:52;;;;;;;22.33;13.83;;;0.40;99.90;;;0.96;100.00;-19759.66;5092574;28;20216;-59
2022/02/27 05:26:20;;;;;;;21.53;14.10;;;0.40;99.90;;;0.86;100.00;-19756.22;5092207;28;20294;-61
2022/02/27 05:28:49;;;;;;;20.57;14.30;;;0.30;99.90;;;0.93;100.00;-19758.63;5092723;28;20263;-60
2022/02/27 05:31:17;;;;;;;19.07;14.20;;;0.30;99.90;;;0.97;100.00;-19759.81;5092592;28;20303;-59
2022/02/27 05:33:46;;;;;;;21.57;14.37;;;0.30;99.90;;;1.00;100.00;-19760.84;5091424;28;20230;-60
2022/02/27 05:36:14;;;;;;;19.57;13.67;;;0.30;99.90;;;1.19;100.00;-19767.50;5092463;28;20797;-60
2022/02/27 05:38:42;;;;;;;19.93;14.20;;;0.40;99.90;;;1.10;100.00;-19764.25;5092011;28;20302;-61
2022/02/27 05:41:10;;;;;;;18.77;13.73;;;0.40;99.90;;;1.10;100.00;-19764.44;5092249;28;20286;-60
2022/02/27 05:43:38;;;;;;;22.70;14.80;;;0.40;99.90;;;1.36;100.00;-19773.16;5092115;28;20196;-60
2022/02/27 05:46:07;;;;;;;26.03;14.73;;;0.50;99.90;;;1.24;100.00;-19769.06;5092132;28;20220;-59
2022/02/27 05:48:36;;;;;;;19.77;14.27;;;0.50;99.90;;;1.04;100.00;-19762.38;5091679;28;20219;-60
2022/02/27 05:51:04;;;;;;;20.03;13.83;;;0.40;99.90;;;1.02;100.00;-19761.69;5092003;28;20229;-60
2022/02/27 05:53:32;;;;;;;21.70;14.80;;;0.40;99.90;;;0.85;100.00;-19755.88;5092181;28;20409;-60
2022/02/27 05:56:00;;;;;;;20.97;14.70;;;0.30;99.90;;;1.13;100.00;-19765.28;5092633;28;20582;-59
2022/02/27 05:58:30;;;;;;;22.17;15.47;;;0.40;99.90;;;1.12;100.00;-19764.94;5091373;28;20779;-59
2022/02/27 06:00:59;;;;;;;22.03;14.67;;;0.40;99.90;;;1.29;100.00;-19770.59;5091771;28;20247;-60
2022/02/27 06:03:29;;;;;;;21.43;15.70;;;0.50;99.90;;;1.22;100.00;-19768.38;5091556;28;20317;-60
2022/02/27 06:05:57;;;;;;;23.40;15.40;;;0.50;99.90;;;1.49;100.00;-19777.59;5092181;28;20257;-59
2022/02/27 06:08:25;;;;;;;23.17;14.80;;;0.60;99.90;;;1.44;100.00;-19775.88;5091687;28;20284;-60
2022/02/27 06:10:53;;;;;;;25.83;15.67;;;0.70;99.90;;;1.53;100.00;-19778.78;5092493;28;20202;-61
2022/02/27 06:13:21;;;;;;;23.83;14.23;;;0.70;99.90;;;1.68;100.00;-19783.94;5091195;28;20312;-60
2022/02/27 06:15:49;;;;;;;23.37;14.93;;;0.80;99.90;;;1.82;100.00;-19788.88;5091830;28;20230;-59
2022/02/27 06:18:17;;;;;;;30.33;14.60;;;0.90;99.90;;;1.83;100.00;-19789.06;5091742;28;20228;-61
2022/02/27 06:20:46;;;;;;;19.50;13.20;;;0.80;99.90;;;1.56;100.00;-19779.81;5091539;28;20223;-61
2022/02/27 06:23:14;;;;;;;21.93;13.37;;;0.80;99.90;;;1.51;100.00;-19778.13;5091794;28;20291;-61
2022/02/27 06:25:42;;;;;;;28.77;14.73;;;0.80;99.90;;;1.58;100.00;-19780.50;5091922;28;20278;-59
2022/02/27 06:28:10;;;;;;;19.70;13.40;;;0.80;99.90;;;1.72;100.00;-19785.28;5091064;28;20224;-60
2022/02/27 06:30:38;;;;;;;24.17;13.30;;;0.80;99.90;;;1.75;100.00;-19786.31;5091756;28;20224;-60
2022/02/27 06:33:06;;;;;;;22.10;14.13;;;0.80;99.90;;;1.51;100.00;-19778.13;5091495;28;20311;-61
2022/02/27 06:35:34;;;;;;;18.73;13.13;;;0.80;99.90;;;1.64;100.00;-19782.72;5091556;28;20227;-59
2022/02/27 06:38:06;;;;;;;20.03;13.17;;;;;;;1.65;100.00;-19783.06;5091912;28;20209;-59
2022/02/27 06:40:34;;;;;;;18.23;13.33;;;0.80;99.90;;;1.76;100.00;-19786.84;5091905;28;20220;-59
2022/02/27 06:43:05;;;;;;;29.43;13.80;;;0.80;99.90;;;1.70;100.00;-19784.59;5090831;28;20258;-60
2022/02/27 06:45:34;;;;;;;22.07;13.83;;;0.90;99.90;;;1.89;100.00;-19791.28;5092775;28;20230;-60
2022/02/27 06:48:03;;;;;;;28.23;14.37;;;0.90;99.90;;;2.05;100.00;-19796.56;5095248;28;20667;-60
2022/02/27 06:50:31;;;;;;;23.57;14.10;;;1.00;99.90;;;1.80;100.00;-19788.19;5095398;28;20238;-60
2022/02/27 06:52:59;;;;;;;17.13;12.67;;;1.00;99.90;;;1.89;100.00;-19791.09;5095926;28;20275;-61
2022/02/27 06:55:29;;;;;;;17.37;12.40;;;1.00;99.90;;;1.87;100.00;-19790.44;5095250;28;20223;-59
2022/02/27 06:57:56;;;;;;;20.03;13.67;;;1.10;99.90;;;1.90;100.00;-19791.63;5094610;28;20689;-60
2022/02/27 07:00:24;;;;;;;22.13;12.97;;;1.10;99.90;;;2.15;100.00;-19800.16;5095125;28;20232;-60
2022/02/27 07:02:54;;;;;;;20.13;13.20;;;1.20;99.90;;;2.29;100.00;-19804.78;5095010;28;20230;-60
2022/02/27 07:05:29;;;;;;;20.30;13.03;;;1.30;99.90;;;2.29;100.00;-19804.78;5094975;28;20231;-61
2022/02/27 07:07:57;;;;;;;17.77;12.70;;;1.40;99.90;;;2.52;100.00;-19812.66;5095489;28;20210;-60
2022/02/27 07:10:25;;;;;;;19.23;13.20;;;1.50;99.90;;;2.47;100.00;-19811.09;5094861;28;20231;-61
2022/02/27 07:12:54;;;;;;;19.13;12.37;;;1.60;99.90;;;2.59;100.00;-19815.03;5094393;28;20356;-60
2022/02/27 07:15:24;;;;;;;18.27;12.60;;;1.70;99.90;;;2.71;100.00;-19819.16;5094153;28;20227;-60
2022/02/27 07:17:52;;;;;;;17.70;11.70;;;1.80;99.90;;;2.72;100.00;-19819.31;5093853;28;20246;-61
2022/02/27 07:20:20;;;;;;;19.07;12.03;;;1.80;99.90;;;2.98;100.00;-19828.38;5093958;28;20231;-61
2022/02/27 07:22:48;;;;;;;15.60;11.63;;;1.90;99.90;;;3.01;100.00;-19829.22;5094121;28;20295;-60
2022/02/27 07:25:18;;;;;;;17.50;12.50;;;2.00;99.90;;;3.02;100.00;-19829.56;5093635;28;20277;-61
2022/02/27 07:27:46;;;;;;;16.77;12.13;;;2.10;99.90;;;3.00;100.00;-19829.06;5093060;28;20227;-61
2022/02/27 07:30:16;;;;;;;17.27;11.47;;;2.10;99.90;;;3.01;100.00;-19829.22;5093548;28;20230;-62
2022/02/27 07:32:44;;;;;;;16.13;10.90;;;2.20;99.90;;;3.00;100.00;-19829.06;5093760;28;20224;-60
2022/02/27 07:35:12;;;;;;;16.37;12.07;;;2.20;99.90;;;2.95;100.00;-19827.34;5093687;28;20192;-61
2022/02/27 07:37:40;;;;;;;17.07;12.00;;;2.20;99.90;;;2.90;100.00;-19825.63;5093929;28;20219;-60
2022/02/27 07:40:10;;;;;;;16.07;11.20;;;2.10;99.90;;;2.81;100.00;-19822.41;5093543;28;20233;-59
2022/02/27 07:42:38;;;;;;;28.63;12.50;;;2.10;99.90;;;2.59;100.00;-19815.03;5092909;28;20278;-60
2022/02/27 07:45:07;;;;;;;17.60;12.27;;;2.00;99.90;;;2.79;100.00;-19821.72;5093561;28;20228;-61
2022/02/27 07:47:37;;;;;;;21.17;11.73;;;1.90;99.90;;;2.78;100.00;-19821.38;5093867;28;20302;-60
2022/02/27 07:50:06;;;;;;;22.20;12.27;;;2.00;99.90;;;3.07;100.00;-19831.28;5094069;28;20213;-60
2022/02/27 07:52:34;;;;;;;18.33;12.33;;;2.10;99.90;;;3.32;100.00;-19840.00;5093753;28;20223;-61
2022/02/27 07:55:02;;;;;;;16.33;12.33;;;2.20;99.90;;;3.38;100.00;-19842.06;5093265;28;20228;-59
2022/02/27 07:57:30;;;;;;;19.93;12.83;;;2.30;99.90;;;3.38;100.00;-19842.06;5091845;28;20314;-61
2022/02/27 07:59:58;;;;;;;18.07;11.90;;;2.40;99.90;;;3.56;100.00;-19848.03;5093286;28;20490;-60
2022/02/27 08:02:28;;;;;;;14.73;12.27;;;2.50;99.90;;;3.85;100.00;-19857.94;5092905;28;20239;-61
2022/02/27 08:04:58;;;;;;;16.73;11.60;;;2.70;99.90;;;3.80;100.00;-19856.25;5093729;28;20203;-61
2022/02/27 08:07:26;;;;;;;18.70;11.47;;;2.80;99.90;;;4.02;100.00;-19863.75;5093711;28;20233;-61
2022/02/27 08:09:54;;;;;;;16.17;11.57;;;2.90;99.90;;;4.10;100.00;-19866.50;5093456;28;20259;-61
2022/02/27 08:12:22;;;;;;;18.63;11.57;;;2.90;99.90;;;4.08;100.00;-19865.63;5094961;28;20667;-61
2022/02/27 08:14:50;;;;;;;19.40;11.80;;;3.00;99.90;;;4.26;100.00;-19871.78;5092949;28;20716;-61
2022/02/27 08:17:18;;;;;;;16.73;11.63;;;3.00;99.90;;;4.20;100.00;-19869.75;5093333;28;20304;-60
2022/02/27 08:19:48;;;;;;;15.13;11.37;;;3.00;99.90;;;4.22;100.00;-19870.44;5093065;28;20204;-60
2022/02/27 08:22:18;;;;;;;16.67;11.53;;;3.10;99.90;;;4.24;100.00;-19871.13;5092745;28;20301;-61
2022/02/27 08:24:46;;;;;;;14.97;10.90;;;3.10;99.90;;;4.43;100.00;-19877.78;5092630;28;20686;-60
2022/02/27 08:27:14;;;;;;;16.60;11.13;;;3.30;99.90;;;4.49;100.00;-19879.81;5092290;28;20611;-60
2022/02/27 08:29:44;;;;;;;15.27;10.63;;;3.40;99.90;;;4.76;100.00;-19889.06;5089499;28;20220;-60
2022/02/27 08:32:12;;;;;;;14.20;10.43;;;3.50;99.90;;;4.82;100.00;-19891.09;5092838;28;20187;-61
2022/02/27 08:34:41;;;;;;;17.53;11.40;;;3.60;99.90;;;4.98;100.00;-19896.41;5093056;28;20256;-62
2022/02/27 08:37:09;;;;;;;15.37;10.40;;;3.70;99.90;;;5.24;100.00;-19905.13;5092214;28;20233;-61
2022/02/27 08:39:40;;;;;;;17.70;12.00;;;3.90;99.90;;;5.48;100.00;-19913.50;5092374;28;20704;-61
2022/02/27 08:42:08;;;;;;;15.97;11.07;;;4.10;99.90;;;5.57;100.00;-19916.41;5092047;28;20774;-60
2022/02/27 08:44:36;;;;;;;14.83;11.20;;;4.30;99.90;;;5.47;100.00;-19913.16;5092233;28;20219;-60
2022/02/27 08:47:06;;;;;;;15.67;11.17;;;4.30;99.90;;;5.43;100.00;-19911.78;5093113;28;20629;-59
2022/02/27 08:49:35;;;;;;;17.40;11.00;;;4.30;99.90;;;5.31;100.00;-19907.53;5092951;28;20627;-60
2022/02/27 08:52:04;;;;;;;14.50;11.10;;;4.20;99.90;;;5.19;100.00;-19903.41;5093164;28;20229;-60
2022/02/27 08:54:32;;;;;;;16.63;12.00;;;4.20;99.90;;;5.46;100.00;-19912.66;5092741;28;20230;-62
2022/02/27 08:57:02;;;;;;;13.40;11.13;;;4.30;99.90;;;5.57;100.00;-19916.41;5092957;28;20310;-62
2022/02/27 08:59:30;;;;;;;15.33;10.97;;;4.30;99.90;;;5.86;100.00;-19926.31;5091584;28;20319;-61
2022/02/27 09:01:58;;;;;;;16.03;11.80;;;4.40;99.90;;;5.89;100.00;-19927.53;5092724;28;20213;-60
2022/02/27 09:04:26;;;;;;;16.27;11.77;;;4.50;99.90;;;5.89;100.00;-19927.53;5091398;28;20243;-59
2022/02/27 09:06:54;;;;;;;16.17;12.13;;;4.50;99.90;;;6.27;100.00;-19940.16;5091865;28;20310;-60
2022/02/27 09:09:23;;;;;;;15.30;11.10;;;4.70;99.90;;;6.64;100.00;-19952.97;5091538;28;20219;-60
2022/02/27 09:11:52;;;;;;;16.77;11.97;;;5.10;99.90;;;7.09;100.00;-19968.38;5091712;28;20231;-61
2022/02/27 09:14:21;;;;;;;17.10;11.97;;;5.40;99.90;;;7.36;100.00;-19977.41;5091524;28;20206;-60
2022/02/27 09:16:49;;;;;;;18.73;11.57;;;5.60;99.90;;;7.11;100.00;-19968.88;5092444;28;20299;-62
2022/02/27 09:19:18;;;;;;;12.80;10.73;;;5.50;99.90;;;6.83;100.00;-19959.47;5091509;28;20233;-61
2022/02/27 09:21:46;;;;;;;15.83;11.57;;;5.50;99.90;;;6.79;100.00;-19957.94;5091481;28;20322;-61
2022/02/27 09:24:14;;;;;;;16.50;11.83;;;5.50;99.90;;;6.75;100.00;-19956.56;5091641;28;20231;-62
2022/02/27 09:26:45;;;;;;;17.17;11.33;;;5.60;99.90;;;6.63;100.00;-19952.63;5091328;28;20254;-60
2022/02/27 09:29:13;;;;;;;17.60;12.17;;;5.50;99.90;;;6.49;100.00;-19947.69;5091311;28;20188;-60
2022/02/27 09:31:43;;;;;;;15.37;11.57;;;5.40;99.90;;;6.44;100.00;-19945.97;5092070;28;20213;-60
2022/02/27 09:34:11;;;;;;;17.17;11.93;;;5.40;99.90;;;6.54;100.00;-19949.56;5090812;28;20255;-62
2022/02/27 09:36:40;;;;;;;16.60;12.40;;;5.50;99.90;;;6.50;100.00;-19948.19;5091645;28;20235;-60
2022/02/27 09:39:08;;;;;;;17.50;11.63;;;5.40;99.90;;;6.40;100.00;-19944.78;5090774;28;20654;-61
2022/02/27 09:41:36;;;;;;;15.67;11.33;;;5.30;99.90;;;6.52;100.00;-19948.88;5090606;28;20705;-61
2022/02/27 09:44:07;;;;;;;15.40;11.93;;;5.30;99.90;;;6.69;100.00;-19954.69;5091251;28;20219;-61
2022/02/27 09:46:36;;;;;;;16.10;11.97;;;5.50;99.90;;;6.47;100.00;-19947.00;5091621;28;20203;-60
2022/02/27 09:49:07;;;;;;;17.87;11.70;;;5.40;99.90;;;6.50;100.00;-19948.19;5091142;28;20234;-61
2022/02/27 09:51:35;;;;;;;17.40;11.87;;;5.30;99.90;;;6.64;100.00;-19952.81;5091026;28;20245;-61
2022/02/27 09:54:03;;;;;;;15.17;10.60;;;5.40;99.90;;;6.93;100.00;-19962.91;5091163;28;20235;-60
2022/02/27 09:56:31;;;;;;;14.97;10.70;;;5.60;99.90;;;7.07;100.00;-19967.50;5091078;28;20232;-61
2022/02/27 09:58:59;;;;;;;16.60;11.47;;;5.80;99.90;;;7.08;100.00;-19967.84;5091157;28;20238;-61
2022/02/27 10:01:27;;;;;;;14.90;11.17;;;5.80;99.90;;;7.05;100.00;-19966.81;5090719;28;20231;-59
2022/02/27 10:03:56;;;;;;;16.90;11.97;;;5.90;99.90;;;7.12;100.00;-19969.22;5090042;28;20275;-60
2022/02/27 10:06:25;;;;;;;16.33;11.37;;;6.00;99.90;;;7.21;100.00;-19972.47;5090987;28;20323;-60
2022/02/27 10:08:57;;;;;;;16.13;12.30;;;6.00;99.90;;;7.26;100.00;-19974.00;5090660;28;20247;-60
2022/02/27 10:11:25;;;;;;;21.63;11.90;;;6.10;99.90;;;7.28;100.00;-19974.84;5090947;28;20218;-60
2022/02/27 10:13:57;;;;;;;13.47;10.90;;;6.10;99.90;;;7.31;100.00;-19975.72;5090984;28;20243;-60